sensor_id;sensor_type;location;lat;lon;timestamp;P1;durP1;ratioP1;P2;durP2;ratioP2
43150;SDS011;28755;51.478;5.702;2022-12-07T00:03:44;17.38;;;13.65;;
43150;SDS011;28755;51.478;5.702;2022-12-07T00:06:12;21.73;;;14.25;;
43150;SDS011;28755;51.478;5.702;2022-12-07T00:08:39;23.50;;;14.13;;
43150;SDS011;28755;51.478;5.702;2022-12-07T00:13:32;22.17;;;14.55;;
43150;SDS011;28755;51.478;5.702;2022-12-07T00:16:00;20.98;;;13.85;;
43150;SDS011;28755;51.478;5.702;2022-12-07T00:18:27;19.83;;;14.13;;
43150;SDS011;28755;51.478;5.702;2022-12-07T00:20:52;24.48;;;14.15;;
43150;SDS011;28755;51.478;5.702;2022-12-07T00:23:18;21.58;;;14.27;;
43150;SDS011;28755;51.478;5.702;2022-12-07T00:25:43;20.48;;;13.50;;
43150;SDS011;28755;51.478;5.702;2022-12-07T00:28:09;19.17;;;13.48;;
43150;SDS011;28755;51.478;5.702;2022-12-07T00:30:35;21.58;;;14.52;;
43150;SDS011;28755;51.478;5.702;2022-12-07T00:33:01;26.15;;;14.95;;
43150;SDS011;28755;51.478;5.702;2022-12-07T00:35:26;22.58;;;13.85;;
43150;SDS011;28755;51.478;5.702;2022-12-07T00:37:52;23.77;;;15.10;;
43150;SDS011;28755;51.478;5.702;2022-12-07T00:40:18;22.10;;;14.60;;
43150;SDS011;28755;51.478;5.702;2022-12-07T00:42:43;19.98;;;14.13;;
43150;SDS011;28755;51.478;5.702;2022-12-07T00:45:09;24.98;;;14.63;;
43150;SDS011;28755;51.478;5.702;2022-12-07T00:47:34;24.98;;;14.38;;
43150;SDS011;28755;51.478;5.702;2022-12-07T00:50:00;23.20;;;14.70;;
43150;SDS011;28755;51.478;5.702;2022-12-07T00:52:26;21.52;;;14.00;;
43150;SDS011;28755;51.478;5.702;2022-12-07T00:54:51;23.85;;;14.65;;
43150;SDS011;28755;51.478;5.702;2022-12-07T00:57:17;22.67;;;14.60;;
43150;SDS011;28755;51.478;5.702;2022-12-07T00:59:42;21.95;;;13.95;;
43150;SDS011;28755;51.478;5.702;2022-12-07T01:02:08;23.63;;;14.13;;
43150;SDS011;28755;51.478;5.702;2022-12-07T01:04:34;21.45;;;14.60;;
43150;SDS011;28755;51.478;5.702;2022-12-07T01:06:59;18.48;;;14.27;;
43150;SDS011;28755;51.478;5.702;2022-12-07T01:09:25;21.13;;;15.75;;
43150;SDS011;28755;51.478;5.702;2022-12-07T01:11:50;22.58;;;15.00;;
43150;SDS011;28755;51.478;5.702;2022-12-07T01:14:16;22.40;;;14.85;;
43150;SDS011;28755;51.478;5.702;2022-12-07T01:16:43;21.02;;;14.45;;
43150;SDS011;28755;51.478;5.702;2022-12-07T01:19:08;27.73;;;16.70;;
43150;SDS011;28755;51.478;5.702;2022-12-07T01:21:34;27.95;;;16.40;;
43150;SDS011;28755;51.478;5.702;2022-12-07T01:24:03;26.83;;;16.40;;
43150;SDS011;28755;51.478;5.702;2022-12-07T01:26:30;26.35;;;15.60;;
43150;SDS011;28755;51.478;5.702;2022-12-07T01:28:56;25.30;;;15.80;;
43150;SDS011;28755;51.478;5.702;2022-12-07T01:31:24;27.70;;;15.98;;
43150;SDS011;28755;51.478;5.702;2022-12-07T01:33:52;24.48;;;15.45;;
43150;SDS011;28755;51.478;5.702;2022-12-07T01:36:28;22.83;;;15.05;;
43150;SDS011;28755;51.478;5.702;2022-12-07T01:38:58;26.08;;;15.43;;
43150;SDS011;28755;51.478;5.702;2022-12-07T01:41:28;21.20;;;14.18;;
43150;SDS011;28755;51.478;5.702;2022-12-07T01:46:38;22.60;;;13.55;;
43150;SDS011;28755;51.478;5.702;2022-12-07T01:49:05;24.05;;;14.48;;
43150;SDS011;28755;51.478;5.702;2022-12-07T01:51:34;20.33;;;13.50;;
43150;SDS011;28755;51.478;5.702;2022-12-07T01:54:02;22.98;;;13.02;;
43150;SDS011;28755;51.478;5.702;2022-12-07T01:56:28;20.23;;;12.90;;
43150;SDS011;28755;51.478;5.702;2022-12-07T01:58:55;19.00;;;12.07;;
43150;SDS011;28755;51.478;5.702;2022-12-07T02:01:23;19.25;;;13.00;;
43150;SDS011;28755;51.478;5.702;2022-12-07T02:03:49;19.80;;;12.13;;
43150;SDS011;28755;51.478;5.702;2022-12-07T02:06:16;19.85;;;11.10;;
43150;SDS011;28755;51.478;5.702;2022-12-07T02:08:45;21.58;;;10.35;;
43150;SDS011;28755;51.478;5.702;2022-12-07T02:11:12;18.30;;;11.65;;
43150;SDS011;28755;51.478;5.702;2022-12-07T02:13:38;18.02;;;11.70;;
43150;SDS011;28755;51.478;5.702;2022-12-07T02:16:25;18.02;;;11.38;;
43150;SDS011;28755;51.478;5.702;2022-12-07T02:29:24;16.45;;;11.07;;
43150;SDS011;28755;51.478;5.702;2022-12-07T02:32:08;16.17;;;10.88;;
43150;SDS011;28755;51.478;5.702;2022-12-07T02:34:44;19.52;;;10.30;;
43150;SDS011;28755;51.478;5.702;2022-12-07T02:37:27;20.98;;;10.98;;
43150;SDS011;28755;51.478;5.702;2022-12-07T02:42:41;16.20;;;10.40;;
43150;SDS011;28755;51.478;5.702;2022-12-07T02:45:11;12.68;;;10.05;;
43150;SDS011;28755;51.478;5.702;2022-12-07T02:47:40;22.38;;;11.07;;
43150;SDS011;28755;51.478;5.702;2022-12-07T02:50:06;16.15;;;10.20;;
43150;SDS011;28755;51.478;5.702;2022-12-07T02:52:32;19.77;;;10.70;;
43150;SDS011;28755;51.478;5.702;2022-12-07T02:54:58;20.73;;;10.68;;
43150;SDS011;28755;51.478;5.702;2022-12-07T02:57:42;17.75;;;10.50;;
43150;SDS011;28755;51.478;5.702;2022-12-07T03:00:27;19.90;;;10.57;;
43150;SDS011;28755;51.478;5.702;2022-12-07T03:03:11;23.15;;;10.82;;
43150;SDS011;28755;51.478;5.702;2022-12-07T03:08:42;14.80;;;11.13;;
43150;SDS011;28755;51.478;5.702;2022-12-07T03:11:25;17.20;;;11.15;;
43150;SDS011;28755;51.478;5.702;2022-12-07T03:14:13;19.40;;;11.82;;
43150;SDS011;28755;51.478;5.702;2022-12-07T03:16:49;18.75;;;12.00;;
43150;SDS011;28755;51.478;5.702;2022-12-07T03:19:26;20.17;;;11.85;;
43150;SDS011;28755;51.478;5.702;2022-12-07T03:24:36;21.98;;;12.30;;
43150;SDS011;28755;51.478;5.702;2022-12-07T03:27:07;20.42;;;12.75;;
43150;SDS011;28755;51.478;5.702;2022-12-07T03:29:44;19.67;;;12.68;;
43150;SDS011;28755;51.478;5.702;2022-12-07T03:32:24;23.05;;;13.88;;
43150;SDS011;28755;51.478;5.702;2022-12-07T03:37:39;23.52;;;13.90;;
43150;SDS011;28755;51.478;5.702;2022-12-07T03:42:51;21.70;;;12.90;;
43150;SDS011;28755;51.478;5.702;2022-12-07T03:45:19;26.92;;;13.38;;
43150;SDS011;28755;51.478;5.702;2022-12-07T03:50:34;25.93;;;13.57;;
43150;SDS011;28755;51.478;5.702;2022-12-07T03:53:24;17.92;;;12.32;;
43150;SDS011;28755;51.478;5.702;2022-12-07T03:55:59;21.40;;;12.20;;
43150;SDS011;28755;51.478;5.702;2022-12-07T03:58:26;16.88;;;11.50;;
43150;SDS011;28755;51.478;5.702;2022-12-07T04:00:52;14.88;;;10.88;;
43150;SDS011;28755;51.478;5.702;2022-12-07T04:03:18;16.83;;;10.75;;
43150;SDS011;28755;51.478;5.702;2022-12-07T04:05:43;22.70;;;11.32;;
43150;SDS011;28755;51.478;5.702;2022-12-07T04:08:09;18.25;;;10.75;;
43150;SDS011;28755;51.478;5.702;2022-12-07T04:10:35;18.73;;;11.10;;
43150;SDS011;28755;51.478;5.702;2022-12-07T04:13:01;20.15;;;11.00;;
43150;SDS011;28755;51.478;5.702;2022-12-07T04:15:26;17.60;;;10.25;;
43150;SDS011;28755;51.478;5.702;2022-12-07T04:17:52;20.42;;;11.30;;
43150;SDS011;28755;51.478;5.702;2022-12-07T04:20:18;16.90;;;10.32;;
43150;SDS011;28755;51.478;5.702;2022-12-07T04:22:44;22.63;;;10.77;;
43150;SDS011;28755;51.478;5.702;2022-12-07T04:25:10;19.80;;;10.45;;
43150;SDS011;28755;51.478;5.702;2022-12-07T04:27:35;15.20;;;10.27;;
43150;SDS011;28755;51.478;5.702;2022-12-07T04:30:01;18.10;;;9.90;;
43150;SDS011;28755;51.478;5.702;2022-12-07T04:32:27;13.70;;;9.35;;
43150;SDS011;28755;51.478;5.702;2022-12-07T04:34:53;18.50;;;9.65;;
43150;SDS011;28755;51.478;5.702;2022-12-07T04:37:18;18.65;;;9.63;;
43150;SDS011;28755;51.478;5.702;2022-12-07T04:39:44;18.90;;;9.95;;
43150;SDS011;28755;51.478;5.702;2022-12-07T04:42:10;17.33;;;9.13;;
43150;SDS011;28755;51.478;5.702;2022-12-07T04:44:37;16.98;;;8.90;;
43150;SDS011;28755;51.478;5.702;2022-12-07T04:47:03;14.02;;;8.50;;
43150;SDS011;28755;51.478;5.702;2022-12-07T04:49:29;13.88;;;7.90;;
43150;SDS011;28755;51.478;5.702;2022-12-07T04:51:54;19.65;;;7.93;;
43150;SDS011;28755;51.478;5.702;2022-12-07T04:54:20;13.88;;;7.53;;
43150;SDS011;28755;51.478;5.702;2022-12-07T04:56:46;17.83;;;8.02;;
43150;SDS011;28755;51.478;5.702;2022-12-07T04:59:12;12.40;;;8.25;;
43150;SDS011;28755;51.478;5.702;2022-12-07T05:01:39;14.73;;;8.20;;
43150;SDS011;28755;51.478;5.702;2022-12-07T05:04:05;14.43;;;7.85;;
43150;SDS011;28755;51.478;5.702;2022-12-07T05:06:32;12.45;;;7.88;;
43150;SDS011;28755;51.478;5.702;2022-12-07T05:08:58;16.83;;;7.93;;
43150;SDS011;28755;51.478;5.702;2022-12-07T05:11:23;20.17;;;8.50;;
43150;SDS011;28755;51.478;5.702;2022-12-07T05:14:05;13.70;;;8.02;;
43150;SDS011;28755;51.478;5.702;2022-12-07T05:16:32;15.20;;;8.77;;
43150;SDS011;28755;51.478;5.702;2022-12-07T05:18:57;17.02;;;8.05;;
43150;SDS011;28755;51.478;5.702;2022-12-07T05:21:23;13.70;;;8.38;;
43150;SDS011;28755;51.478;5.702;2022-12-07T05:23:49;19.73;;;8.35;;
43150;SDS011;28755;51.478;5.702;2022-12-07T05:26:15;16.15;;;8.48;;
43150;SDS011;28755;51.478;5.702;2022-12-07T05:28:41;18.50;;;8.60;;
43150;SDS011;28755;51.478;5.702;2022-12-07T05:31:06;13.80;;;8.02;;
43150;SDS011;28755;51.478;5.702;2022-12-07T05:33:32;14.63;;;8.30;;
43150;SDS011;28755;51.478;5.702;2022-12-07T05:35:57;12.27;;;7.72;;
43150;SDS011;28755;51.478;5.702;2022-12-07T05:38:23;11.13;;;7.57;;
43150;SDS011;28755;51.478;5.702;2022-12-07T05:40:50;12.73;;;7.63;;
43150;SDS011;28755;51.478;5.702;2022-12-07T05:43:16;14.93;;;8.00;;
43150;SDS011;28755;51.478;5.702;2022-12-07T05:45:41;15.43;;;7.82;;
43150;SDS011;28755;51.478;5.702;2022-12-07T05:48:07;18.05;;;7.65;;
43150;SDS011;28755;51.478;5.702;2022-12-07T05:50:32;16.13;;;8.80;;
43150;SDS011;28755;51.478;5.702;2022-12-07T05:52:58;17.58;;;8.93;;
43150;SDS011;28755;51.478;5.702;2022-12-07T05:55:24;12.82;;;8.50;;
43150;SDS011;28755;51.478;5.702;2022-12-07T05:57:49;14.57;;;8.77;;
43150;SDS011;28755;51.478;5.702;2022-12-07T06:00:33;15.25;;;8.60;;
43150;SDS011;28755;51.478;5.702;2022-12-07T06:02:59;18.08;;;8.95;;
43150;SDS011;28755;51.478;5.702;2022-12-07T06:05:24;15.98;;;8.77;;
43150;SDS011;28755;51.478;5.702;2022-12-07T06:07:50;21.67;;;9.88;;
43150;SDS011;28755;51.478;5.702;2022-12-07T06:10:16;21.33;;;9.63;;
43150;SDS011;28755;51.478;5.702;2022-12-07T06:12:42;18.05;;;10.07;;
43150;SDS011;28755;51.478;5.702;2022-12-07T06:15:08;20.92;;;11.13;;
43150;SDS011;28755;51.478;5.702;2022-12-07T06:17:35;12.80;;;8.77;;
43150;SDS011;28755;51.478;5.702;2022-12-07T06:20:02;15.52;;;10.30;;
43150;SDS011;28755;51.478;5.702;2022-12-07T06:22:28;16.30;;;10.65;;
43150;SDS011;28755;51.478;5.702;2022-12-07T06:24:53;16.23;;;10.07;;
43150;SDS011;28755;51.478;5.702;2022-12-07T06:27:19;19.00;;;10.57;;
43150;SDS011;28755;51.478;5.702;2022-12-07T06:29:45;17.40;;;10.30;;
43150;SDS011;28755;51.478;5.702;2022-12-07T06:32:10;18.60;;;9.95;;
43150;SDS011;28755;51.478;5.702;2022-12-07T06:34:37;14.82;;;9.38;;
43150;SDS011;28755;51.478;5.702;2022-12-07T06:37:02;19.92;;;10.10;;
43150;SDS011;28755;51.478;5.702;2022-12-07T06:39:28;18.58;;;10.23;;
43150;SDS011;28755;51.478;5.702;2022-12-07T06:41:54;17.65;;;9.48;;
43150;SDS011;28755;51.478;5.702;2022-12-07T06:44:21;17.52;;;10.32;;
43150;SDS011;28755;51.478;5.702;2022-12-07T06:46:47;15.07;;;10.25;;
43150;SDS011;28755;51.478;5.702;2022-12-07T06:49:13;18.15;;;9.82;;
43150;SDS011;28755;51.478;5.702;2022-12-07T06:51:39;16.02;;;9.45;;
43150;SDS011;28755;51.478;5.702;2022-12-07T06:54:08;15.10;;;10.13;;
43150;SDS011;28755;51.478;5.702;2022-12-07T06:56:34;21.10;;;10.20;;
43150;SDS011;28755;51.478;5.702;2022-12-07T06:59:00;21.63;;;9.77;;
43150;SDS011;28755;51.478;5.702;2022-12-07T07:01:26;17.38;;;10.02;;
43150;SDS011;28755;51.478;5.702;2022-12-07T07:03:51;18.00;;;10.40;;
43150;SDS011;28755;51.478;5.702;2022-12-07T07:06:17;23.10;;;9.93;;
43150;SDS011;28755;51.478;5.702;2022-12-07T07:08:43;17.88;;;10.07;;
43150;SDS011;28755;51.478;5.702;2022-12-07T07:11:09;15.15;;;9.70;;
43150;SDS011;28755;51.478;5.702;2022-12-07T07:13:35;20.30;;;10.55;;
43150;SDS011;28755;51.478;5.702;2022-12-07T07:16:01;16.85;;;9.25;;
43150;SDS011;28755;51.478;5.702;2022-12-07T07:18:27;19.00;;;9.38;;
43150;SDS011;28755;51.478;5.702;2022-12-07T07:20:53;17.05;;;9.20;;
43150;SDS011;28755;51.478;5.702;2022-12-07T07:23:19;17.27;;;8.68;;
43150;SDS011;28755;51.478;5.702;2022-12-07T07:25:46;22.65;;;9.88;;
43150;SDS011;28755;51.478;5.702;2022-12-07T07:28:12;25.42;;;10.07;;
43150;SDS011;28755;51.478;5.702;2022-12-07T07:30:38;22.13;;;9.57;;
43150;SDS011;28755;51.478;5.702;2022-12-07T07:33:04;24.67;;;10.15;;
43150;SDS011;28755;51.478;5.702;2022-12-07T07:35:31;16.40;;;9.90;;
43150;SDS011;28755;51.478;5.702;2022-12-07T07:37:58;25.77;;;10.13;;
43150;SDS011;28755;51.478;5.702;2022-12-07T07:40:25;31.08;;;9.25;;
43150;SDS011;28755;51.478;5.702;2022-12-07T07:42:51;29.63;;;9.98;;
43150;SDS011;28755;51.478;5.702;2022-12-07T07:45:18;20.35;;;9.10;;
43150;SDS011;28755;51.478;5.702;2022-12-07T07:47:45;27.55;;;9.05;;
43150;SDS011;28755;51.478;5.702;2022-12-07T07:50:10;22.00;;;8.63;;
43150;SDS011;28755;51.478;5.702;2022-12-07T07:52:36;13.00;;;7.55;;
43150;SDS011;28755;51.478;5.702;2022-12-07T07:55:02;21.13;;;7.95;;
43150;SDS011;28755;51.478;5.702;2022-12-07T07:57:28;17.10;;;8.80;;
43150;SDS011;28755;51.478;5.702;2022-12-07T07:59:53;14.57;;;7.82;;
43150;SDS011;28755;51.478;5.702;2022-12-07T08:02:21;15.20;;;8.40;;
43150;SDS011;28755;51.478;5.702;2022-12-07T08:04:47;17.58;;;7.65;;
43150;SDS011;28755;51.478;5.702;2022-12-07T08:07:13;13.77;;;7.00;;
43150;SDS011;28755;51.478;5.702;2022-12-07T08:09:39;16.10;;;7.32;;
43150;SDS011;28755;51.478;5.702;2022-12-07T08:12:05;16.80;;;8.23;;
43150;SDS011;28755;51.478;5.702;2022-12-07T08:14:31;20.00;;;8.02;;
43150;SDS011;28755;51.478;5.702;2022-12-07T08:16:57;19.88;;;10.43;;
43150;SDS011;28755;51.478;5.702;2022-12-07T08:19:23;19.75;;;10.80;;
43150;SDS011;28755;51.478;5.702;2022-12-07T08:21:49;13.93;;;8.10;;
43150;SDS011;28755;51.478;5.702;2022-12-07T08:24:15;9.98;;;6.53;;
43150;SDS011;28755;51.478;5.702;2022-12-07T08:26:40;14.07;;;6.38;;
43150;SDS011;28755;51.478;5.702;2022-12-07T08:29:06;10.73;;;5.53;;
43150;SDS011;28755;51.478;5.702;2022-12-07T08:31:32;14.93;;;4.65;;
43150;SDS011;28755;51.478;5.702;2022-12-07T08:33:57;11.23;;;4.35;;
43150;SDS011;28755;51.478;5.702;2022-12-07T08:36:23;13.30;;;5.07;;
43150;SDS011;28755;51.478;5.702;2022-12-07T08:38:49;12.85;;;4.30;;
43150;SDS011;28755;51.478;5.702;2022-12-07T08:41:14;10.85;;;3.60;;
43150;SDS011;28755;51.478;5.702;2022-12-07T08:43:40;11.65;;;3.92;;
43150;SDS011;28755;51.478;5.702;2022-12-07T08:48:43;9.13;;;3.08;;
43150;SDS011;28755;51.478;5.702;2022-12-07T08:51:15;8.45;;;2.83;;
43150;SDS011;28755;51.478;5.702;2022-12-07T08:53:41;9.82;;;2.90;;
43150;SDS011;28755;51.478;5.702;2022-12-07T08:56:08;6.97;;;2.55;;
43150;SDS011;28755;51.478;5.702;2022-12-07T08:58:34;9.13;;;2.70;;
43150;SDS011;28755;51.478;5.702;2022-12-07T09:01:02;8.02;;;2.75;;
43150;SDS011;28755;51.478;5.702;2022-12-07T09:03:28;9.80;;;2.40;;
43150;SDS011;28755;51.478;5.702;2022-12-07T09:05:53;9.95;;;2.65;;
43150;SDS011;28755;51.478;5.702;2022-12-07T09:08:20;7.43;;;2.75;;
43150;SDS011;28755;51.478;5.702;2022-12-07T09:10:47;7.68;;;2.50;;
43150;SDS011;28755;51.478;5.702;2022-12-07T09:13:13;11.05;;;4.53;;
43150;SDS011;28755;51.478;5.702;2022-12-07T09:15:38;12.38;;;7.13;;
43150;SDS011;28755;51.478;5.702;2022-12-07T09:18:04;11.45;;;5.15;;
43150;SDS011;28755;51.478;5.702;2022-12-07T09:20:30;11.45;;;4.20;;
43150;SDS011;28755;51.478;5.702;2022-12-07T09:22:55;9.50;;;3.40;;
43150;SDS011;28755;51.478;5.702;2022-12-07T09:25:21;6.50;;;2.50;;
43150;SDS011;28755;51.478;5.702;2022-12-07T09:27:46;10.20;;;2.50;;
43150;SDS011;28755;51.478;5.702;2022-12-07T09:30:12;15.68;;;3.35;;
43150;SDS011;28755;51.478;5.702;2022-12-07T09:32:38;8.90;;;2.40;;
43150;SDS011;28755;51.478;5.702;2022-12-07T09:35:04;10.23;;;2.70;;
43150;SDS011;28755;51.478;5.702;2022-12-07T09:37:30;11.02;;;2.90;;
43150;SDS011;28755;51.478;5.702;2022-12-07T09:40:00;7.57;;;2.60;;
43150;SDS011;28755;51.478;5.702;2022-12-07T09:44:57;11.27;;;2.65;;
43150;SDS011;28755;51.478;5.702;2022-12-07T09:47:24;7.20;;;2.85;;
43150;SDS011;28755;51.478;5.702;2022-12-07T09:49:51;11.57;;;8.23;;
43150;SDS011;28755;51.478;5.702;2022-12-07T09:52:20;12.07;;;5.53;;
43150;SDS011;28755;51.478;5.702;2022-12-07T09:54:51;12.00;;;3.60;;
43150;SDS011;28755;51.478;5.702;2022-12-07T09:57:27;10.30;;;2.85;;
43150;SDS011;28755;51.478;5.702;2022-12-07T09:59:56;8.10;;;2.72;;
43150;SDS011;28755;51.478;5.702;2022-12-07T10:02:35;8.57;;;3.28;;
43150;SDS011;28755;51.478;5.702;2022-12-07T10:05:07;9.95;;;3.35;;
43150;SDS011;28755;51.478;5.702;2022-12-07T10:07:38;9.77;;;2.90;;
43150;SDS011;28755;51.478;5.702;2022-12-07T10:10:04;10.05;;;2.80;;
43150;SDS011;28755;51.478;5.702;2022-12-07T10:13:02;10.88;;;3.35;;
43150;SDS011;28755;51.478;5.702;2022-12-07T10:18:26;11.38;;;2.70;;
43150;SDS011;28755;51.478;5.702;2022-12-07T10:21:05;10.27;;;2.42;;
43150;SDS011;28755;51.478;5.702;2022-12-07T10:23:32;11.38;;;2.80;;
43150;SDS011;28755;51.478;5.702;2022-12-07T10:25:58;8.75;;;2.72;;
43150;SDS011;28755;51.478;5.702;2022-12-07T10:28:27;5.47;;;2.22;;
43150;SDS011;28755;51.478;5.702;2022-12-07T10:31:01;9.25;;;2.60;;
43150;SDS011;28755;51.478;5.702;2022-12-07T10:33:50;10.20;;;2.40;;
43150;SDS011;28755;51.478;5.702;2022-12-07T10:36:24;6.68;;;2.20;;
43150;SDS011;28755;51.478;5.702;2022-12-07T10:39:02;8.75;;;2.50;;
43150;SDS011;28755;51.478;5.702;2022-12-07T10:41:35;10.43;;;2.85;;
43150;SDS011;28755;51.478;5.702;2022-12-07T10:44:20;7.13;;;2.30;;
43150;SDS011;28755;51.478;5.702;2022-12-07T10:46:53;8.52;;;2.40;;
43150;SDS011;28755;51.478;5.702;2022-12-07T10:54:37;10.23;;;2.03;;
43150;SDS011;28755;51.478;5.702;2022-12-07T11:02:42;7.78;;;2.13;;
43150;SDS011;28755;51.478;5.702;2022-12-07T11:10:50;11.02;;;5.07;;
43150;SDS011;28755;51.478;5.702;2022-12-07T11:21:51;7.72;;;2.45;;
43150;SDS011;28755;51.478;5.702;2022-12-07T11:30:19;5.75;;;1.73;;
43150;SDS011;28755;51.478;5.702;2022-12-07T11:38:17;6.18;;;1.75;;
43150;SDS011;28755;51.478;5.702;2022-12-07T11:40:49;5.85;;;1.83;;
43150;SDS011;28755;51.478;5.702;2022-12-07T11:43:24;7.78;;;2.25;;
43150;SDS011;28755;51.478;5.702;2022-12-07T11:46:03;5.05;;;1.55;;
43150;SDS011;28755;51.478;5.702;2022-12-07T11:48:35;7.20;;;1.95;;
43150;SDS011;28755;51.478;5.702;2022-12-07T11:51:09;6.18;;;1.63;;
43150;SDS011;28755;51.478;5.702;2022-12-07T11:53:41;12.07;;;2.50;;
43150;SDS011;28755;51.478;5.702;2022-12-07T11:56:13;8.90;;;1.80;;
43150;SDS011;28755;51.478;5.702;2022-12-07T12:01:18;7.63;;;1.88;;
43150;SDS011;28755;51.478;5.702;2022-12-07T12:07:01;6.55;;;1.92;;
43150;SDS011;28755;51.478;5.702;2022-12-07T12:09:35;8.53;;;2.20;;
43150;SDS011;28755;51.478;5.702;2022-12-07T12:18:24;12.63;;;2.10;;
43150;SDS011;28755;51.478;5.702;2022-12-07T12:21:04;8.10;;;1.85;;
43150;SDS011;28755;51.478;5.702;2022-12-07T12:23:42;8.57;;;1.90;;
43150;SDS011;28755;51.478;5.702;2022-12-07T12:26:17;7.00;;;1.77;;
43150;SDS011;28755;51.478;5.702;2022-12-07T12:28:53;9.50;;;1.90;;
43150;SDS011;28755;51.478;5.702;2022-12-07T12:33:53;9.05;;;3.60;;
43150;SDS011;28755;51.478;5.702;2022-12-07T12:44:02;8.90;;;1.95;;
43150;SDS011;28755;51.478;5.702;2022-12-07T12:46:54;7.18;;;2.08;;
43150;SDS011;28755;51.478;5.702;2022-12-07T12:51:51;6.60;;;2.03;;
43150;SDS011;28755;51.478;5.702;2022-12-07T12:54:26;10.38;;;3.10;;
43150;SDS011;28755;51.478;5.702;2022-12-07T13:00:30;6.97;;;2.17;;
43150;SDS011;28755;51.478;5.702;2022-12-07T13:02:52;8.30;;;3.08;;
43150;SDS011;28755;51.478;5.702;2022-12-07T13:05:23;10.90;;;2.65;;
43150;SDS011;28755;51.478;5.702;2022-12-07T13:13:01;6.95;;;2.40;;
43150;SDS011;28755;51.478;5.702;2022-12-07T13:16:35;8.38;;;2.13;;
43150;SDS011;28755;51.478;5.702;2022-12-07T13:23:32;7.25;;;2.40;;
43150;SDS011;28755;51.478;5.702;2022-12-07T13:28:40;5.22;;;1.27;;
43150;SDS011;28755;51.478;5.702;2022-12-07T13:31:14;6.47;;;1.30;;
43150;SDS011;28755;51.478;5.702;2022-12-07T13:33:44;4.70;;;0.98;;
43150;SDS011;28755;51.478;5.702;2022-12-07T13:36:21;8.65;;;1.90;;
43150;SDS011;28755;51.478;5.702;2022-12-07T13:38:49;4.85;;;1.63;;
43150;SDS011;28755;51.478;5.702;2022-12-07T13:41:23;5.43;;;1.20;;
43150;SDS011;28755;51.478;5.702;2022-12-07T13:44:00;5.90;;;1.50;;
43150;SDS011;28755;51.478;5.702;2022-12-07T13:46:44;4.13;;;0.90;;
43150;SDS011;28755;51.478;5.702;2022-12-07T13:49:16;9.32;;;1.67;;
43150;SDS011;28755;51.478;5.702;2022-12-07T13:51:45;3.60;;;1.53;;
43150;SDS011;28755;51.478;5.702;2022-12-07T13:54:11;4.65;;;1.35;;
43150;SDS011;28755;51.478;5.702;2022-12-07T13:56:38;6.68;;;1.40;;
43150;SDS011;28755;51.478;5.702;2022-12-07T13:59:13;7.72;;;1.20;;
43150;SDS011;28755;51.478;5.702;2022-12-07T14:01:42;5.95;;;1.52;;
43150;SDS011;28755;51.478;5.702;2022-12-07T14:06:55;14.05;;;5.65;;
43150;SDS011;28755;51.478;5.702;2022-12-07T14:09:22;8.18;;;3.53;;
43150;SDS011;28755;51.478;5.702;2022-12-07T14:11:50;14.20;;;5.30;;
43150;SDS011;28755;51.478;5.702;2022-12-07T14:14:19;11.15;;;3.67;;
43150;SDS011;28755;51.478;5.702;2022-12-07T14:19:42;8.82;;;2.67;;
43150;SDS011;28755;51.478;5.702;2022-12-07T14:22:21;5.97;;;2.53;;
43150;SDS011;28755;51.478;5.702;2022-12-07T14:24:50;12.32;;;3.28;;
43150;SDS011;28755;51.478;5.702;2022-12-07T14:27:23;9.52;;;2.08;;
43150;SDS011;28755;51.478;5.702;2022-12-07T14:29:55;7.47;;;2.15;;
43150;SDS011;28755;51.478;5.702;2022-12-07T14:32:25;6.82;;;1.90;;
43150;SDS011;28755;51.478;5.702;2022-12-07T14:37:35;5.60;;;1.83;;
43150;SDS011;28755;51.478;5.702;2022-12-07T14:40:02;11.23;;;2.67;;
43150;SDS011;28755;51.478;5.702;2022-12-07T14:42:29;8.98;;;1.90;;
43150;SDS011;28755;51.478;5.702;2022-12-07T14:44:56;7.85;;;1.88;;
43150;SDS011;28755;51.478;5.702;2022-12-07T14:47:22;9.23;;;2.22;;
43150;SDS011;28755;51.478;5.702;2022-12-07T14:49:49;9.77;;;2.03;;
43150;SDS011;28755;51.478;5.702;2022-12-07T14:52:36;8.13;;;3.25;;
43150;SDS011;28755;51.478;5.702;2022-12-07T14:55:00;12.18;;;4.82;;
43150;SDS011;28755;51.478;5.702;2022-12-07T14:57:26;6.18;;;2.97;;
43150;SDS011;28755;51.478;5.702;2022-12-07T14:59:52;6.65;;;2.20;;
43150;SDS011;28755;51.478;5.702;2022-12-07T15:02:17;7.22;;;2.20;;
43150;SDS011;28755;51.478;5.702;2022-12-07T15:04:43;4.70;;;2.30;;
43150;SDS011;28755;51.478;5.702;2022-12-07T15:07:10;6.90;;;2.60;;
43150;SDS011;28755;51.478;5.702;2022-12-07T15:09:45;8.75;;;2.47;;
43150;SDS011;28755;51.478;5.702;2022-12-07T15:12:11;7.25;;;2.67;;
43150;SDS011;28755;51.478;5.702;2022-12-07T15:14:37;9.63;;;2.58;;
43150;SDS011;28755;51.478;5.702;2022-12-07T15:17:02;4.93;;;2.33;;
43150;SDS011;28755;51.478;5.702;2022-12-07T15:19:28;9.32;;;2.13;;
43150;SDS011;28755;51.478;5.702;2022-12-07T15:21:53;5.63;;;2.13;;
43150;SDS011;28755;51.478;5.702;2022-12-07T15:24:21;4.45;;;1.88;;
43150;SDS011;28755;51.478;5.702;2022-12-07T15:26:48;7.43;;;2.25;;
43150;SDS011;28755;51.478;5.702;2022-12-07T15:29:14;9.60;;;2.10;;
43150;SDS011;28755;51.478;5.702;2022-12-07T15:31:40;7.03;;;2.40;;
43150;SDS011;28755;51.478;5.702;2022-12-07T15:34:06;8.60;;;2.40;;
43150;SDS011;28755;51.478;5.702;2022-12-07T15:36:33;10.20;;;2.70;;
43150;SDS011;28755;51.478;5.702;2022-12-07T15:38:59;5.70;;;2.00;;
43150;SDS011;28755;51.478;5.702;2022-12-07T15:41:25;7.47;;;2.83;;
43150;SDS011;28755;51.478;5.702;2022-12-07T15:43:51;5.32;;;2.40;;
43150;SDS011;28755;51.478;5.702;2022-12-07T15:46:36;6.47;;;2.78;;
43150;SDS011;28755;51.478;5.702;2022-12-07T15:49:04;9.18;;;2.40;;
43150;SDS011;28755;51.478;5.702;2022-12-07T15:51:34;8.35;;;2.40;;
43150;SDS011;28755;51.478;5.702;2022-12-07T15:54:00;5.40;;;2.55;;
43150;SDS011;28755;51.478;5.702;2022-12-07T15:56:25;10.18;;;2.78;;
43150;SDS011;28755;51.478;5.702;2022-12-07T15:58:51;5.88;;;2.67;;
43150;SDS011;28755;51.478;5.702;2022-12-07T16:01:17;7.28;;;3.50;;
43150;SDS011;28755;51.478;5.702;2022-12-07T16:03:44;9.13;;;3.05;;
43150;SDS011;28755;51.478;5.702;2022-12-07T16:06:11;6.82;;;2.85;;
43150;SDS011;28755;51.478;5.702;2022-12-07T16:08:37;9.20;;;3.17;;
43150;SDS011;28755;51.478;5.702;2022-12-07T16:11:08;11.00;;;4.20;;
43150;SDS011;28755;51.478;5.702;2022-12-07T16:13:34;31.70;;;14.68;;
43150;SDS011;28755;51.478;5.702;2022-12-07T16:16:05;11.45;;;4.68;;
43150;SDS011;28755;51.478;5.702;2022-12-07T16:18:32;9.88;;;4.45;;
43150;SDS011;28755;51.478;5.702;2022-12-07T16:20:58;34.67;;;14.32;;
43150;SDS011;28755;51.478;5.702;2022-12-07T16:23:23;77.53;;;41.47;;
43150;SDS011;28755;51.478;5.702;2022-12-07T16:25:49;34.35;;;20.02;;
43150;SDS011;28755;51.478;5.702;2022-12-07T16:28:14;24.63;;;18.48;;
43150;SDS011;28755;51.478;5.702;2022-12-07T16:30:40;10.82;;;6.80;;
43150;SDS011;28755;51.478;5.702;2022-12-07T16:33:05;6.57;;;3.40;;
43150;SDS011;28755;51.478;5.702;2022-12-07T16:35:31;6.60;;;4.30;;
43150;SDS011;28755;51.478;5.702;2022-12-07T16:37:57;6.53;;;3.65;;
43150;SDS011;28755;51.478;5.702;2022-12-07T16:40:22;6.97;;;3.35;;
43150;SDS011;28755;51.478;5.702;2022-12-07T16:42:48;9.55;;;3.10;;
43150;SDS011;28755;51.478;5.702;2022-12-07T16:45:13;6.78;;;3.05;;
43150;SDS011;28755;51.478;5.702;2022-12-07T16:47:39;8.45;;;4.30;;
43150;SDS011;28755;51.478;5.702;2022-12-07T16:50:06;4.80;;;3.17;;